createdAt,value
2023-01-13T00:01:25.940Z,19.30
2023-01-13T00:03:52.981Z,19.00
2023-01-13T00:06:21.571Z,22.20
2023-01-13T00:08:49.504Z,21.90
2023-01-13T00:11:16.891Z,23.20
2023-01-13T00:13:44.152Z,15.80
2023-01-13T00:16:12.884Z,18.30
2023-01-13T00:18:40.716Z,26.70
2023-01-13T00:21:15.423Z,21.30
2023-01-13T00:23:42.580Z,27.30
2023-01-13T00:26:14.750Z,27.40
2023-01-13T00:28:41.604Z,22.30
2023-01-13T00:31:10.060Z,24.10
2023-01-13T00:33:40.531Z,25.60
2023-01-13T00:36:08.368Z,24.30
2023-01-13T00:38:35.331Z,18.50
2023-01-13T00:41:07.081Z,22.10
2023-01-13T00:43:35.007Z,27.60
2023-01-13T00:46:02.528Z,29.30
2023-01-13T00:48:30.573Z,34.80
2023-01-13T00:51:02.539Z,26.30
2023-01-13T00:53:32.170Z,24.90
2023-01-13T00:56:01.659Z,25.30
2023-01-13T00:58:30.963Z,24.30
2023-01-13T01:01:09.234Z,21.80
2023-01-13T01:03:36.377Z,29.90
2023-01-13T01:06:07.776Z,24.10
2023-01-13T01:08:35.275Z,30.30
2023-01-13T01:11:03.931Z,29.40
2023-01-13T01:13:31.079Z,27.50
2023-01-13T01:15:58.609Z,34.60
2023-01-13T01:18:25.992Z,24.10
2023-01-13T01:20:53.137Z,23.80
2023-01-13T01:23:19.982Z,31.10
2023-01-13T01:25:49.492Z,27.10
2023-01-13T01:28:18.994Z,36.20
2023-01-13T01:30:46.277Z,29.30
2023-01-13T01:33:13.091Z,35.20
2023-01-13T01:35:40.871Z,30.40
2023-01-13T01:38:07.809Z,34.60
2023-01-13T01:40:35.165Z,34.20
2023-01-13T01:43:20.437Z,30.50
2023-01-13T01:45:47.513Z,28.70
2023-01-13T01:48:14.445Z,24.50
2023-01-13T01:50:41.284Z,29.40
2023-01-13T01:53:15.605Z,23.60
2023-01-13T01:55:42.522Z,28.60
2023-01-13T01:58:17.689Z,25.60
2023-01-13T02:00:44.774Z,30.10
2023-01-13T02:03:11.678Z,23.30
2023-01-13T02:05:39.090Z,31.20
2023-01-13T02:08:08.643Z,26.00
2023-01-13T02:10:36.713Z,32.80
2023-01-13T02:13:05.398Z,27.30
2023-01-13T02:15:50.270Z,27.20
2023-01-13T02:18:20.493Z,24.30
2023-01-13T02:20:56.647Z,19.80
2023-01-13T02:24:07.425Z,27.10
2023-01-13T02:26:50.553Z,21.30
2023-01-13T02:30:17.914Z,24.20
2023-01-13T02:32:50.501Z,21.30
2023-01-13T02:35:29.628Z,19.90
2023-01-13T02:37:56.471Z,15.20
2023-01-13T02:40:24.850Z,29.10
2023-01-13T02:43:31.532Z,19.50
2023-01-13T02:46:04.381Z,22.00
2023-01-13T02:48:31.774Z,18.60
2023-01-13T02:51:00.974Z,13.40
2023-01-13T02:54:07.138Z,22.80
2023-01-13T02:56:36.904Z,19.70
2023-01-13T02:59:04.204Z,15.20
2023-01-13T03:01:30.948Z,22.00
2023-01-13T03:03:57.834Z,24.60
2023-01-13T03:06:57.293Z,23.00
2023-01-13T03:09:38.200Z,17.90
2023-01-13T03:12:20.499Z,23.50
2023-01-13T03:14:55.011Z,30.60
2023-01-13T03:17:29.638Z,27.70
2023-01-13T03:20:20.647Z,28.40
2023-01-13T03:22:52.533Z,31.50
2023-01-13T03:25:25.517Z,33.80
2023-01-13T03:27:54.619Z,28.40
2023-01-13T03:30:26.487Z,28.00
2023-01-13T03:32:56.491Z,29.80
2023-01-13T03:35:30.517Z,27.20
2023-01-13T03:38:01.971Z,30.30
2023-01-13T03:40:34.712Z,30.10
2023-01-13T03:43:26.846Z,39.30
2023-01-13T03:45:56.132Z,45.20
2023-01-13T03:48:22.810Z,44.30
2023-01-13T03:50:51.101Z,58.20
2023-01-13T03:53:23.812Z,36.40
2023-01-13T03:55:52.833Z,42.70
2023-01-13T03:58:28.614Z,40.10
2023-01-13T04:01:12.435Z,45.00
2023-01-13T04:06:41.701Z,31.60
2023-01-13T04:09:15.490Z,27.10
2023-01-13T04:11:43.856Z,45.10
2023-01-13T04:14:11.018Z,35.80
2023-01-13T04:16:38.359Z,29.90
2023-01-13T04:19:05.996Z,34.60
2023-01-13T04:21:32.769Z,26.90
2023-01-13T04:23:59.602Z,32.40
2023-01-13T04:26:27.116Z,35.90
2023-01-13T04:28:54.945Z,40.80
2023-01-13T04:31:21.776Z,37.70
2023-01-13T04:33:48.702Z,29.30
2023-01-13T04:36:15.681Z,29.90
2023-01-13T04:38:42.372Z,30.50
2023-01-13T04:41:09.253Z,34.10
2023-01-13T04:43:36.374Z,36.00
2023-01-13T04:46:03.176Z,35.20
2023-01-13T04:48:30.418Z,34.00
2023-01-13T04:50:57.077Z,26.70
2023-01-13T04:53:23.885Z,28.10
2023-01-13T04:55:51.655Z,41.50
2023-01-13T04:58:18.511Z,33.70
2023-01-13T05:00:45.167Z,26.40
2023-01-13T05:03:11.914Z,32.30
2023-01-13T05:05:39.040Z,31.70
2023-01-13T05:08:08.485Z,37.40
2023-01-13T05:10:36.331Z,38.60
2023-01-13T05:13:23.657Z,29.80
2023-01-13T05:16:11.333Z,31.80
2023-01-13T05:18:39.795Z,25.80
2023-01-13T05:21:26.377Z,31.20
2023-01-13T05:24:11.574Z,28.00
2023-01-13T05:26:38.469Z,35.80
2023-01-13T05:29:05.152Z,27.40
2023-01-13T05:31:32.000Z,27.30
2023-01-13T05:33:58.747Z,25.40
2023-01-13T05:36:25.397Z,22.80
2023-01-13T05:38:52.896Z,31.10
2023-01-13T05:41:38.229Z,26.20
2023-01-13T05:44:04.937Z,28.40
2023-01-13T05:46:33.444Z,30.30
2023-01-13T05:49:01.072Z,24.40
2023-01-13T05:51:27.667Z,26.20
2023-01-13T05:53:54.363Z,27.00
2023-01-13T05:56:21.585Z,27.90
2023-01-13T05:58:48.187Z,28.60
2023-01-13T06:01:15.311Z,27.50
2023-01-13T06:03:42.224Z,32.20
2023-01-13T06:06:09.230Z,29.00
2023-01-13T06:08:40.112Z,23.50
2023-01-13T06:11:07.388Z,22.70
2023-01-13T06:13:35.544Z,23.90
2023-01-13T06:16:02.856Z,26.60
2023-01-13T06:18:29.963Z,23.00
2023-01-13T06:20:56.715Z,24.60
2023-01-13T06:23:23.708Z,21.70
2023-01-13T06:26:09.468Z,21.50
2023-01-13T06:28:36.279Z,30.50
2023-01-13T06:31:04.603Z,22.30
2023-01-13T06:33:40.563Z,27.80
2023-01-13T06:36:11.794Z,26.90
2023-01-13T06:38:40.226Z,27.10
2023-01-13T06:41:08.563Z,23.30
2023-01-13T06:43:35.437Z,28.00
2023-01-13T06:46:02.550Z,24.40
2023-01-13T06:48:32.515Z,31.90
2023-01-13T06:50:59.209Z,23.20
2023-01-13T06:53:26.175Z,24.00
2023-01-13T06:55:52.864Z,28.20
2023-01-13T06:58:19.482Z,30.90
2023-01-13T07:00:50.617Z,33.70
2023-01-13T07:03:17.632Z,34.10
2023-01-13T07:05:51.117Z,31.10
2023-01-13T07:08:18.333Z,30.20
2023-01-13T07:10:45.054Z,26.30
2023-01-13T07:13:31.051Z,31.30
2023-01-13T07:15:59.345Z,30.90
2023-01-13T07:18:27.758Z,28.50
2023-01-13T07:20:55.845Z,26.80
2023-01-13T07:23:23.378Z,33.70
2023-01-13T07:25:50.211Z,31.90
2023-01-13T07:28:16.909Z,32.60
2023-01-13T07:30:44.007Z,29.90
2023-01-13T07:33:10.796Z,31.00
2023-01-13T07:35:37.455Z,34.20
2023-01-13T07:38:04.585Z,31.00
2023-01-13T07:40:31.481Z,29.30
2023-01-13T07:43:17.465Z,31.80
2023-01-13T07:45:44.330Z,27.90
2023-01-13T07:48:11.155Z,31.60
2023-01-13T07:50:37.947Z,29.20
2023-01-13T07:53:04.876Z,34.70
2023-01-13T07:55:31.533Z,28.00
2023-01-13T07:57:58.147Z,30.00
2023-01-13T08:00:25.679Z,27.90
2023-01-13T08:02:52.583Z,32.70
2023-01-13T08:05:19.484Z,36.00
2023-01-13T08:07:46.833Z,32.90
2023-01-13T08:10:14.286Z,38.60
2023-01-13T08:13:00.119Z,34.20
2023-01-13T08:15:27.159Z,37.80
2023-01-13T08:17:53.900Z,39.40
2023-01-13T08:20:20.467Z,37.10
2023-01-13T08:22:47.348Z,45.50
2023-01-13T08:25:14.112Z,40.60
2023-01-13T08:27:41.035Z,39.90
2023-01-13T08:30:10.889Z,42.00
2023-01-13T12:33:06.482Z,24.90
2023-01-13T12:35:39.522Z,20.90
2023-01-13T12:38:22.524Z,27.30
2023-01-13T12:40:55.001Z,25.10
2023-01-13T12:43:41.841Z,23.70
2023-01-13T12:46:28.768Z,25.80
2023-01-13T12:48:58.762Z,24.10
2023-01-13T12:51:33.431Z,24.50
2023-01-13T12:54:20.483Z,28.00
2023-01-13T12:56:47.187Z,21.80
2023-01-13T12:59:18.280Z,23.70
2023-01-13T13:01:46.572Z,20.80
2023-01-13T13:04:16.673Z,28.00
2023-01-13T13:06:45.479Z,28.70
2023-01-13T13:09:19.509Z,24.30
2023-01-13T13:12:02.617Z,22.10
2023-01-13T13:14:49.700Z,28.10
2023-01-13T13:17:24.782Z,20.80
2023-01-13T13:19:51.649Z,22.80
2023-01-13T13:22:20.435Z,22.70
2023-01-13T13:24:56.901Z,21.60
2023-01-13T13:27:46.993Z,28.70
2023-01-13T13:30:25.077Z,22.10
2023-01-13T13:33:24.689Z,22.00
2023-01-13T13:36:07.604Z,21.30
2023-01-13T13:39:21.762Z,24.40
2023-01-13T13:42:09.104Z,23.60
2023-01-13T13:44:58.396Z,26.00
2023-01-13T13:47:25.092Z,24.90
2023-01-13T13:49:53.561Z,23.10
2023-01-13T13:52:35.538Z,21.50
2023-01-13T13:55:20.314Z,22.10
2023-01-13T13:57:51.594Z,20.50
2023-01-13T14:00:20.008Z,23.30
2023-01-13T14:02:55.536Z,22.20
2023-01-13T14:05:23.655Z,22.30
2023-01-13T14:07:59.825Z,20.10
2023-01-13T14:10:34.220Z,24.50
2023-01-13T14:13:03.314Z,24.70
2023-01-13T14:15:32.622Z,21.60
2023-01-13T14:18:01.628Z,20.60
2023-01-13T14:20:28.750Z,24.00
2023-01-13T14:23:00.763Z,25.70
2023-01-13T14:25:39.703Z,20.70
2023-01-13T14:28:12.579Z,18.80
2023-01-13T14:30:39.362Z,20.60
2023-01-13T14:33:11.945Z,20.10
2023-01-13T14:35:38.676Z,23.30
2023-01-13T14:38:05.414Z,21.70
2023-01-13T14:40:32.805Z,21.00
2023-01-13T14:42:59.814Z,19.40
2023-01-13T14:45:26.836Z,21.90
2023-01-13T14:47:53.919Z,23.30
2023-01-13T14:50:28.931Z,19.20
2023-01-13T14:52:56.555Z,19.90
2023-01-13T14:55:29.691Z,22.50
2023-01-13T14:58:21.920Z,22.10
2023-01-13T15:00:50.376Z,19.70
2023-01-13T15:03:19.114Z,21.00
2023-01-13T15:05:47.375Z,22.70
2023-01-13T15:08:14.070Z,22.40
2023-01-13T15:10:47.920Z,23.30
2023-01-13T15:13:26.170Z,22.40
2023-01-13T15:15:55.328Z,22.10
2023-01-13T15:18:22.400Z,22.90
2023-01-13T15:20:52.011Z,24.00
2023-01-13T15:23:19.181Z,24.50
2023-01-13T15:25:46.407Z,23.90
2023-01-13T15:28:21.502Z,24.00
2023-01-13T15:30:49.489Z,21.80
2023-01-13T15:33:17.383Z,23.10
2023-01-13T15:35:46.892Z,25.10
2023-01-13T15:38:18.734Z,22.60
2023-01-13T15:40:48.534Z,23.60
2023-01-13T15:43:36.019Z,23.90
2023-01-13T15:46:22.671Z,24.00
2023-01-13T15:48:53.079Z,23.30
2023-01-13T15:51:21.856Z,23.70
2023-01-13T15:53:49.785Z,21.90
2023-01-13T15:56:23.187Z,27.90
2023-01-13T21:15:34.486Z,33.20
2023-01-13T21:18:21.717Z,31.30
2023-01-13T21:20:50.290Z,32.20
2023-01-13T21:23:17.343Z,26.80
2023-01-13T21:25:44.300Z,26.70
2023-01-13T21:28:13.076Z,28.40
2023-01-13T21:30:39.956Z,30.80
2023-01-13T21:33:07.208Z,28.00
2023-01-13T21:35:37.314Z,34.30
2023-01-13T21:38:05.637Z,29.20
2023-01-13T21:40:32.842Z,28.70
2023-01-13T21:43:18.690Z,29.30
2023-01-13T21:46:06.398Z,27.40
2023-01-13T21:48:34.021Z,28.20
2023-01-13T21:51:00.920Z,32.10
2023-01-13T21:53:27.777Z,30.80
2023-01-13T21:55:54.555Z,30.40
2023-01-13T21:58:21.399Z,29.30
2023-01-13T22:00:49.547Z,32.00
2023-01-13T22:03:18.112Z,36.70
2023-01-13T22:05:45.812Z,28.70
2023-01-13T22:08:13.086Z,27.00
2023-01-13T22:10:59.879Z,34.20
2023-01-13T22:13:47.515Z,30.50
2023-01-13T22:16:15.350Z,26.40
2023-01-13T22:18:42.555Z,33.40
2023-01-13T22:21:10.340Z,32.90
2023-01-13T22:23:37.113Z,28.40
2023-01-13T22:26:05.275Z,31.60
2023-01-13T22:28:39.479Z,28.70
2023-01-13T22:31:10.524Z,28.70
2023-01-13T22:33:41.657Z,27.90
2023-01-13T22:36:09.148Z,27.90
2023-01-13T22:38:35.972Z,29.60
2023-01-13T22:41:04.231Z,30.50
2023-01-13T22:43:31.376Z,27.60
2023-01-13T22:46:11.489Z,31.00
2023-01-13T22:48:40.616Z,33.30
2023-01-13T22:51:15.243Z,26.90
2023-01-13T22:53:42.400Z,28.90
2023-01-13T22:56:19.253Z,29.70
2023-01-13T22:58:46.217Z,24.50
2023-01-13T23:01:14.671Z,26.60
2023-01-13T23:03:41.908Z,29.60
2023-01-13T23:06:09.310Z,30.30
2023-01-13T23:08:36.855Z,25.50
2023-01-13T23:11:05.311Z,28.30
2023-01-13T23:13:33.988Z,30.50
2023-01-13T23:16:05.176Z,28.80
2023-01-13T23:18:32.428Z,24.60
2023-01-13T23:21:06.762Z,26.10
2023-01-13T23:23:33.798Z,26.10
2023-01-13T23:26:00.953Z,24.60
2023-01-13T23:28:27.703Z,27.80
2023-01-13T23:30:54.703Z,24.80
2023-01-13T23:33:21.731Z,26.90
2023-01-13T23:35:56.001Z,23.50
2023-01-13T23:38:22.833Z,21.10
2023-01-13T23:40:49.482Z,21.60
2023-01-13T23:43:16.234Z,23.10
2023-01-13T23:45:43.358Z,26.40
2023-01-13T23:48:10.956Z,27.20
2023-01-13T23:50:38.131Z,25.20
2023-01-13T23:53:04.830Z,24.30
2023-01-13T23:55:31.631Z,36.50
2023-01-13T23:57:58.522Z,22.80
